sensor_id;sensor_type;location;lat;lon;timestamp;P1;durP1;ratioP1;P2;durP2;ratioP2
18818;SDS011;9537;45.594;9.294;2024-01-30T00:00:08;57.13;;;29.77;;
18818;SDS011;9537;45.594;9.294;2024-01-30T00:01:09;57.87;;;30.47;;
18818;SDS011;9537;45.594;9.294;2024-01-30T00:02:11;57.00;;;28.70;;
18818;SDS011;9537;45.594;9.294;2024-01-30T00:03:12;62.90;;;30.30;;
18818;SDS011;9537;45.594;9.294;2024-01-30T00:04:15;59.70;;;30.90;;
18818;SDS011;9537;45.594;9.294;2024-01-30T00:05:17;58.93;;;28.83;;
18818;SDS011;9537;45.594;9.294;2024-01-30T00:06:18;62.83;;;29.80;;
18818;SDS011;9537;45.594;9.294;2024-01-30T00:07:20;59.53;;;30.17;;
18818;SDS011;9537;45.594;9.294;2024-01-30T00:08:21;57.07;;;30.10;;
18818;SDS011;9537;45.594;9.294;2024-01-30T00:09:22;56.37;;;30.77;;
18818;SDS011;9537;45.594;9.294;2024-01-30T00:10:23;62.77;;;30.60;;
18818;SDS011;9537;45.594;9.294;2024-01-30T00:11:25;58.13;;;28.90;;
18818;SDS011;9537;45.594;9.294;2024-01-30T00:12:25;54.93;;;29.30;;
18818;SDS011;9537;45.594;9.294;2024-01-30T00:13:27;68.37;;;33.13;;
18818;SDS011;9537;45.594;9.294;2024-01-30T00:14:28;60.10;;;31.23;;
18818;SDS011;9537;45.594;9.294;2024-01-30T00:15:30;57.00;;;30.53;;
18818;SDS011;9537;45.594;9.294;2024-01-30T00:16:30;61.47;;;30.83;;
18818;SDS011;9537;45.594;9.294;2024-01-30T00:17:32;58.50;;;31.37;;
18818;SDS011;9537;45.594;9.294;2024-01-30T00:18:33;63.83;;;31.93;;
18818;SDS011;9537;45.594;9.294;2024-01-30T00:19:36;64.57;;;30.43;;
18818;SDS011;9537;45.594;9.294;2024-01-30T00:20:37;61.57;;;29.03;;
18818;SDS011;9537;45.594;9.294;2024-01-30T00:21:39;56.93;;;29.73;;
18818;SDS011;9537;45.594;9.294;2024-01-30T00:22:39;60.43;;;30.37;;
18818;SDS011;9537;45.594;9.294;2024-01-30T00:23:41;56.90;;;29.83;;
18818;SDS011;9537;45.594;9.294;2024-01-30T00:24:45;56.60;;;28.77;;
18818;SDS011;9537;45.594;9.294;2024-01-30T00:25:45;59.87;;;30.13;;
18818;SDS011;9537;45.594;9.294;2024-01-30T00:26:47;65.03;;;31.77;;
18818;SDS011;9537;45.594;9.294;2024-01-30T00:27:48;65.77;;;31.43;;
18818;SDS011;9537;45.594;9.294;2024-01-30T00:28:49;64.90;;;31.07;;
18818;SDS011;9537;45.594;9.294;2024-01-30T00:29:50;66.10;;;31.93;;
18818;SDS011;9537;45.594;9.294;2024-01-30T00:30:51;64.37;;;33.00;;
18818;SDS011;9537;45.594;9.294;2024-01-30T00:31:53;62.67;;;31.17;;
18818;SDS011;9537;45.594;9.294;2024-01-30T00:32:53;79.97;;;33.10;;
18818;SDS011;9537;45.594;9.294;2024-01-30T00:33:55;57.80;;;30.27;;
18818;SDS011;9537;45.594;9.294;2024-01-30T00:34:57;63.70;;;31.57;;
18818;SDS011;9537;45.594;9.294;2024-01-30T00:35:59;73.07;;;31.97;;
18818;SDS011;9537;45.594;9.294;2024-01-30T00:37:00;63.40;;;32.83;;
18818;SDS011;9537;45.594;9.294;2024-01-30T00:38:01;67.17;;;34.30;;
18818;SDS011;9537;45.594;9.294;2024-01-30T00:39:02;72.67;;;32.83;;
18818;SDS011;9537;45.594;9.294;2024-01-30T00:40:06;73.00;;;33.97;;
18818;SDS011;9537;45.594;9.294;2024-01-30T00:41:10;67.00;;;31.53;;
18818;SDS011;9537;45.594;9.294;2024-01-30T00:42:11;68.73;;;33.43;;
18818;SDS011;9537;45.594;9.294;2024-01-30T00:43:13;70.30;;;34.67;;
18818;SDS011;9537;45.594;9.294;2024-01-30T00:44:13;69.17;;;33.30;;
18818;SDS011;9537;45.594;9.294;2024-01-30T00:45:15;63.67;;;31.20;;
18818;SDS011;9537;45.594;9.294;2024-01-30T00:46:16;58.87;;;30.07;;
18818;SDS011;9537;45.594;9.294;2024-01-30T00:47:18;68.03;;;34.30;;
18818;SDS011;9537;45.594;9.294;2024-01-30T00:48:19;78.03;;;44.93;;
18818;SDS011;9537;45.594;9.294;2024-01-30T00:49:20;69.53;;;33.30;;
18818;SDS011;9537;45.594;9.294;2024-01-30T00:50:23;74.60;;;33.53;;
18818;SDS011;9537;45.594;9.294;2024-01-30T00:51:24;70.93;;;34.10;;
18818;SDS011;9537;45.594;9.294;2024-01-30T00:52:26;72.10;;;34.10;;
18818;SDS011;9537;45.594;9.294;2024-01-30T00:53:26;73.03;;;35.93;;
18818;SDS011;9537;45.594;9.294;2024-01-30T00:54:28;66.70;;;33.10;;
18818;SDS011;9537;45.594;9.294;2024-01-30T00:55:29;66.87;;;33.23;;
18818;SDS011;9537;45.594;9.294;2024-01-30T00:56:31;62.80;;;32.13;;
18818;SDS011;9537;45.594;9.294;2024-01-30T00:57:32;67.57;;;32.07;;
18818;SDS011;9537;45.594;9.294;2024-01-30T00:58:34;66.43;;;31.77;;
18818;SDS011;9537;45.594;9.294;2024-01-30T00:59:34;60.77;;;30.63;;
18818;SDS011;9537;45.594;9.294;2024-01-30T01:00:36;66.30;;;32.00;;
18818;SDS011;9537;45.594;9.294;2024-01-30T01:01:37;66.73;;;33.30;;
18818;SDS011;9537;45.594;9.294;2024-01-30T01:02:38;60.03;;;31.47;;
18818;SDS011;9537;45.594;9.294;2024-01-30T01:03:39;68.77;;;32.57;;
18818;SDS011;9537;45.594;9.294;2024-01-30T01:04:43;64.67;;;32.67;;
18818;SDS011;9537;45.594;9.294;2024-01-30T01:05:46;71.73;;;33.50;;
18818;SDS011;9537;45.594;9.294;2024-01-30T01:06:47;65.13;;;32.23;;
18818;SDS011;9537;45.594;9.294;2024-01-30T01:07:48;63.17;;;32.93;;
18818;SDS011;9537;45.594;9.294;2024-01-30T01:08:50;64.73;;;32.57;;
18818;SDS011;9537;45.594;9.294;2024-01-30T01:09:51;70.10;;;33.00;;
18818;SDS011;9537;45.594;9.294;2024-01-30T01:10:52;59.90;;;30.70;;
18818;SDS011;9537;45.594;9.294;2024-01-30T01:11:53;68.07;;;33.07;;
18818;SDS011;9537;45.594;9.294;2024-01-30T01:12:54;67.67;;;31.87;;
18818;SDS011;9537;45.594;9.294;2024-01-30T01:13:56;61.73;;;30.57;;
18818;SDS011;9537;45.594;9.294;2024-01-30T01:14:57;66.43;;;31.17;;
18818;SDS011;9537;45.594;9.294;2024-01-30T01:15:58;67.90;;;33.83;;
18818;SDS011;9537;45.594;9.294;2024-01-30T01:16:59;60.10;;;31.23;;
18818;SDS011;9537;45.594;9.294;2024-01-30T01:18:01;63.27;;;31.73;;
18818;SDS011;9537;45.594;9.294;2024-01-30T01:19:02;64.43;;;30.10;;
18818;SDS011;9537;45.594;9.294;2024-01-30T01:20:04;69.27;;;31.03;;
18818;SDS011;9537;45.594;9.294;2024-01-30T01:21:08;58.97;;;30.70;;
18818;SDS011;9537;45.594;9.294;2024-01-30T01:22:10;61.57;;;30.30;;
18818;SDS011;9537;45.594;9.294;2024-01-30T01:23:11;69.13;;;31.13;;
18818;SDS011;9537;45.594;9.294;2024-01-30T01:24:12;59.70;;;29.80;;
18818;SDS011;9537;45.594;9.294;2024-01-30T01:25:13;73.97;;;40.90;;
18818;SDS011;9537;45.594;9.294;2024-01-30T01:26:15;58.37;;;29.57;;
18818;SDS011;9537;45.594;9.294;2024-01-30T01:27:16;63.07;;;30.23;;
18818;SDS011;9537;45.594;9.294;2024-01-30T01:28:18;62.03;;;29.70;;
18818;SDS011;9537;45.594;9.294;2024-01-30T01:29:19;61.13;;;30.53;;
18818;SDS011;9537;45.594;9.294;2024-01-30T01:30:20;64.47;;;31.80;;
18818;SDS011;9537;45.594;9.294;2024-01-30T01:31:22;67.23;;;30.80;;
18818;SDS011;9537;45.594;9.294;2024-01-30T01:32:24;73.73;;;35.33;;
18818;SDS011;9537;45.594;9.294;2024-01-30T01:33:26;68.83;;;31.87;;
18818;SDS011;9537;45.594;9.294;2024-01-30T01:34:27;64.23;;;31.83;;
18818;SDS011;9537;45.594;9.294;2024-01-30T01:35:28;72.17;;;33.77;;
18818;SDS011;9537;45.594;9.294;2024-01-30T01:36:31;65.17;;;31.20;;
18818;SDS011;9537;45.594;9.294;2024-01-30T01:37:32;60.40;;;30.43;;
18818;SDS011;9537;45.594;9.294;2024-01-30T01:38:33;59.33;;;29.50;;
18818;SDS011;9537;45.594;9.294;2024-01-30T01:39:35;76.40;;;43.20;;
18818;SDS011;9537;45.594;9.294;2024-01-30T01:40:36;62.23;;;31.40;;
18818;SDS011;9537;45.594;9.294;2024-01-30T01:41:39;66.13;;;31.00;;
18818;SDS011;9537;45.594;9.294;2024-01-30T01:42:40;67.40;;;33.37;;
18818;SDS011;9537;45.594;9.294;2024-01-30T01:43:42;55.53;;;29.80;;
18818;SDS011;9537;45.594;9.294;2024-01-30T01:44:42;59.27;;;29.80;;
18818;SDS011;9537;45.594;9.294;2024-01-30T01:45:44;60.87;;;31.90;;
18818;SDS011;9537;45.594;9.294;2024-01-30T01:46:46;59.83;;;29.10;;
18818;SDS011;9537;45.594;9.294;2024-01-30T01:47:50;70.50;;;39.33;;
18818;SDS011;9537;45.594;9.294;2024-01-30T01:48:51;62.10;;;29.87;;
18818;SDS011;9537;45.594;9.294;2024-01-30T01:49:53;58.83;;;29.03;;
18818;SDS011;9537;45.594;9.294;2024-01-30T01:50:54;56.97;;;27.97;;
18818;SDS011;9537;45.594;9.294;2024-01-30T01:51:57;54.47;;;27.53;;
18818;SDS011;9537;45.594;9.294;2024-01-30T01:52:59;58.83;;;28.67;;
18818;SDS011;9537;45.594;9.294;2024-01-30T01:54:02;64.10;;;29.80;;
18818;SDS011;9537;45.594;9.294;2024-01-30T01:55:04;62.43;;;30.30;;
18818;SDS011;9537;45.594;9.294;2024-01-30T01:56:07;56.10;;;28.40;;
18818;SDS011;9537;45.594;9.294;2024-01-30T01:57:07;63.23;;;30.20;;
18818;SDS011;9537;45.594;9.294;2024-01-30T01:58:09;57.83;;;28.83;;
18818;SDS011;9537;45.594;9.294;2024-01-30T01:59:12;60.43;;;29.17;;
18818;SDS011;9537;45.594;9.294;2024-01-30T02:00:15;58.73;;;27.83;;
18818;SDS011;9537;45.594;9.294;2024-01-30T02:01:17;61.50;;;30.23;;
18818;SDS011;9537;45.594;9.294;2024-01-30T02:02:23;60.73;;;28.83;;
18818;SDS011;9537;45.594;9.294;2024-01-30T02:03:26;58.40;;;28.63;;
18818;SDS011;9537;45.594;9.294;2024-01-30T02:04:28;56.70;;;28.53;;
18818;SDS011;9537;45.594;9.294;2024-01-30T02:05:29;64.13;;;30.43;;
18818;SDS011;9537;45.594;9.294;2024-01-30T02:06:32;55.97;;;27.57;;
18818;SDS011;9537;45.594;9.294;2024-01-30T02:07:35;50.33;;;27.23;;
18818;SDS011;9537;45.594;9.294;2024-01-30T02:08:36;56.40;;;28.83;;
18818;SDS011;9537;45.594;9.294;2024-01-30T02:09:37;62.23;;;30.43;;
18818;SDS011;9537;45.594;9.294;2024-01-30T02:10:39;64.23;;;30.60;;
18818;SDS011;9537;45.594;9.294;2024-01-30T02:11:40;64.63;;;29.27;;
18818;SDS011;9537;45.594;9.294;2024-01-30T02:12:42;63.17;;;30.50;;
18818;SDS011;9537;45.594;9.294;2024-01-30T02:13:43;59.10;;;29.13;;
18818;SDS011;9537;45.594;9.294;2024-01-30T02:14:45;63.60;;;30.23;;
18818;SDS011;9537;45.594;9.294;2024-01-30T02:15:48;56.90;;;30.17;;
18818;SDS011;9537;45.594;9.294;2024-01-30T02:16:51;64.23;;;31.60;;
18818;SDS011;9537;45.594;9.294;2024-01-30T02:17:52;63.93;;;30.43;;
18818;SDS011;9537;45.594;9.294;2024-01-30T02:18:53;58.60;;;30.23;;
18818;SDS011;9537;45.594;9.294;2024-01-30T02:19:54;56.93;;;28.80;;
18818;SDS011;9537;45.594;9.294;2024-01-30T02:20:56;69.40;;;40.27;;
18818;SDS011;9537;45.594;9.294;2024-01-30T02:22:03;65.23;;;38.63;;
18818;SDS011;9537;45.594;9.294;2024-01-30T02:23:04;55.80;;;27.93;;
18818;SDS011;9537;45.594;9.294;2024-01-30T02:24:06;65.40;;;35.93;;
18818;SDS011;9537;45.594;9.294;2024-01-30T02:25:08;60.83;;;33.37;;
18818;SDS011;9537;45.594;9.294;2024-01-30T02:26:08;65.80;;;35.20;;
18818;SDS011;9537;45.594;9.294;2024-01-30T02:27:11;63.83;;;37.03;;
18818;SDS011;9537;45.594;9.294;2024-01-30T02:28:12;63.13;;;30.93;;
18818;SDS011;9537;45.594;9.294;2024-01-30T02:29:14;65.67;;;35.90;;
18818;SDS011;9537;45.594;9.294;2024-01-30T02:30:14;63.97;;;30.43;;
18818;SDS011;9537;45.594;9.294;2024-01-30T02:31:16;62.93;;;33.40;;
18818;SDS011;9537;45.594;9.294;2024-01-30T02:32:17;61.20;;;35.83;;
18818;SDS011;9537;45.594;9.294;2024-01-30T02:33:19;63.90;;;36.17;;
18818;SDS011;9537;45.594;9.294;2024-01-30T02:34:22;64.17;;;36.10;;
18818;SDS011;9537;45.594;9.294;2024-01-30T02:35:23;72.00;;;39.90;;
18818;SDS011;9537;45.594;9.294;2024-01-30T02:36:24;65.33;;;37.20;;
18818;SDS011;9537;45.594;9.294;2024-01-30T02:37:26;69.03;;;39.00;;
18818;SDS011;9537;45.594;9.294;2024-01-30T02:38:28;67.10;;;38.63;;
18818;SDS011;9537;45.594;9.294;2024-01-30T02:39:29;71.33;;;41.10;;
18818;SDS011;9537;45.594;9.294;2024-01-30T02:40:30;70.33;;;41.73;;
18818;SDS011;9537;45.594;9.294;2024-01-30T02:41:32;65.60;;;37.17;;
18818;SDS011;9537;45.594;9.294;2024-01-30T02:42:32;65.90;;;37.70;;
18818;SDS011;9537;45.594;9.294;2024-01-30T02:43:34;66.40;;;40.07;;
18818;SDS011;9537;45.594;9.294;2024-01-30T02:44:35;71.87;;;39.47;;
18818;SDS011;9537;45.594;9.294;2024-01-30T02:45:36;64.17;;;30.10;;
18818;SDS011;9537;45.594;9.294;2024-01-30T02:46:37;64.97;;;38.20;;
18818;SDS011;9537;45.594;9.294;2024-01-30T02:47:39;59.83;;;30.47;;
18818;SDS011;9537;45.594;9.294;2024-01-30T02:48:40;58.83;;;33.50;;
18818;SDS011;9537;45.594;9.294;2024-01-30T02:49:41;67.77;;;40.93;;
18818;SDS011;9537;45.594;9.294;2024-01-30T02:50:42;67.47;;;38.10;;
18818;SDS011;9537;45.594;9.294;2024-01-30T02:51:44;66.43;;;38.90;;
18818;SDS011;9537;45.594;9.294;2024-01-30T02:52:46;69.93;;;36.97;;
18818;SDS011;9537;45.594;9.294;2024-01-30T02:53:48;70.10;;;30.57;;
18818;SDS011;9537;45.594;9.294;2024-01-30T02:54:48;70.53;;;38.27;;
18818;SDS011;9537;45.594;9.294;2024-01-30T02:55:49;58.13;;;31.17;;
18818;SDS011;9537;45.594;9.294;2024-01-30T02:56:51;74.20;;;42.43;;
18818;SDS011;9537;45.594;9.294;2024-01-30T02:57:52;59.33;;;30.30;;
18818;SDS011;9537;45.594;9.294;2024-01-30T02:58:53;59.37;;;28.40;;
18818;SDS011;9537;45.594;9.294;2024-01-30T02:59:54;59.73;;;30.07;;
18818;SDS011;9537;45.594;9.294;2024-01-30T03:00:56;66.27;;;33.73;;
18818;SDS011;9537;45.594;9.294;2024-01-30T03:01:56;58.57;;;27.03;;
18818;SDS011;9537;45.594;9.294;2024-01-30T03:02:59;58.10;;;28.03;;
18818;SDS011;9537;45.594;9.294;2024-01-30T03:03:59;56.10;;;28.03;;
18818;SDS011;9537;45.594;9.294;2024-01-30T03:05:02;57.97;;;27.23;;
18818;SDS011;9537;45.594;9.294;2024-01-30T03:06:03;63.43;;;28.53;;
18818;SDS011;9537;45.594;9.294;2024-01-30T03:07:07;60.30;;;29.07;;
18818;SDS011;9537;45.594;9.294;2024-01-30T03:08:09;68.00;;;40.90;;
18818;SDS011;9537;45.594;9.294;2024-01-30T03:09:11;59.30;;;32.93;;
18818;SDS011;9537;45.594;9.294;2024-01-30T03:10:11;69.27;;;40.37;;
18818;SDS011;9537;45.594;9.294;2024-01-30T03:11:13;61.93;;;28.60;;
18818;SDS011;9537;45.594;9.294;2024-01-30T03:12:14;62.13;;;34.57;;
18818;SDS011;9537;45.594;9.294;2024-01-30T03:13:16;62.37;;;30.17;;
18818;SDS011;9537;45.594;9.294;2024-01-30T03:14:16;58.40;;;30.53;;
18818;SDS011;9537;45.594;9.294;2024-01-30T03:15:18;70.37;;;40.60;;
18818;SDS011;9537;45.594;9.294;2024-01-30T03:16:19;54.03;;;27.50;;
18818;SDS011;9537;45.594;9.294;2024-01-30T03:17:21;56.97;;;27.90;;
18818;SDS011;9537;45.594;9.294;2024-01-30T03:18:21;55.43;;;29.70;;
18818;SDS011;9537;45.594;9.294;2024-01-30T03:19:23;56.97;;;29.53;;
18818;SDS011;9537;45.594;9.294;2024-01-30T03:20:24;62.57;;;29.37;;
18818;SDS011;9537;45.594;9.294;2024-01-30T03:21:26;54.80;;;29.00;;
18818;SDS011;9537;45.594;9.294;2024-01-30T03:22:26;59.53;;;27.73;;
18818;SDS011;9537;45.594;9.294;2024-01-30T03:23:29;59.37;;;29.93;;
18818;SDS011;9537;45.594;9.294;2024-01-30T03:24:32;58.17;;;28.70;;
18818;SDS011;9537;45.594;9.294;2024-01-30T03:25:33;58.03;;;27.93;;
18818;SDS011;9537;45.594;9.294;2024-01-30T03:26:35;60.50;;;28.53;;
18818;SDS011;9537;45.594;9.294;2024-01-30T03:27:36;61.03;;;28.03;;
18818;SDS011;9537;45.594;9.294;2024-01-30T03:28:36;57.53;;;27.77;;
18818;SDS011;9537;45.594;9.294;2024-01-30T03:29:38;64.00;;;28.17;;
18818;SDS011;9537;45.594;9.294;2024-01-30T03:30:39;55.33;;;27.67;;
18818;SDS011;9537;45.594;9.294;2024-01-30T03:31:40;52.97;;;26.17;;
18818;SDS011;9537;45.594;9.294;2024-01-30T03:32:41;59.00;;;29.13;;
18818;SDS011;9537;45.594;9.294;2024-01-30T03:33:42;61.77;;;28.53;;
18818;SDS011;9537;45.594;9.294;2024-01-30T03:34:44;56.10;;;28.27;;
18818;SDS011;9537;45.594;9.294;2024-01-30T03:35:44;61.70;;;29.83;;
18818;SDS011;9537;45.594;9.294;2024-01-30T03:36:46;54.90;;;27.57;;
18818;SDS011;9537;45.594;9.294;2024-01-30T03:37:47;61.33;;;28.43;;
18818;SDS011;9537;45.594;9.294;2024-01-30T03:38:49;56.77;;;28.97;;
18818;SDS011;9537;45.594;9.294;2024-01-30T03:39:50;64.07;;;37.17;;
18818;SDS011;9537;45.594;9.294;2024-01-30T03:40:51;71.67;;;36.67;;
18818;SDS011;9537;45.594;9.294;2024-01-30T03:41:52;53.93;;;26.97;;
18818;SDS011;9537;45.594;9.294;2024-01-30T03:42:53;54.47;;;26.40;;
18818;SDS011;9537;45.594;9.294;2024-01-30T03:43:54;49.63;;;24.90;;
18818;SDS011;9537;45.594;9.294;2024-01-30T03:44:56;57.50;;;28.37;;
18818;SDS011;9537;45.594;9.294;2024-01-30T03:45:57;52.60;;;26.07;;
18818;SDS011;9537;45.594;9.294;2024-01-30T03:46:58;56.70;;;28.27;;
18818;SDS011;9537;45.594;9.294;2024-01-30T03:47:59;56.13;;;27.10;;
18818;SDS011;9537;45.594;9.294;2024-01-30T03:49:01;52.43;;;26.50;;
18818;SDS011;9537;45.594;9.294;2024-01-30T03:50:03;58.77;;;25.40;;
18818;SDS011;9537;45.594;9.294;2024-01-30T03:51:05;49.43;;;25.70;;
18818;SDS011;9537;45.594;9.294;2024-01-30T03:52:06;54.43;;;25.73;;
18818;SDS011;9537;45.594;9.294;2024-01-30T03:53:08;54.40;;;26.83;;
18818;SDS011;9537;45.594;9.294;2024-01-30T03:54:10;49.93;;;27.93;;
18818;SDS011;9537;45.594;9.294;2024-01-30T03:55:12;57.33;;;26.77;;
18818;SDS011;9537;45.594;9.294;2024-01-30T03:56:13;52.23;;;26.40;;
18818;SDS011;9537;45.594;9.294;2024-01-30T03:57:15;54.47;;;26.83;;
18818;SDS011;9537;45.594;9.294;2024-01-30T03:58:16;51.33;;;25.17;;
18818;SDS011;9537;45.594;9.294;2024-01-30T03:59:17;54.70;;;27.63;;
18818;SDS011;9537;45.594;9.294;2024-01-30T04:00:24;49.67;;;26.10;;
18818;SDS011;9537;45.594;9.294;2024-01-30T04:01:25;51.63;;;27.17;;
18818;SDS011;9537;45.594;9.294;2024-01-30T04:02:26;54.47;;;27.13;;
18818;SDS011;9537;45.594;9.294;2024-01-30T04:03:28;66.87;;;36.20;;
18818;SDS011;9537;45.594;9.294;2024-01-30T04:04:28;55.83;;;25.87;;
18818;SDS011;9537;45.594;9.294;2024-01-30T04:05:30;48.10;;;25.63;;
18818;SDS011;9537;45.594;9.294;2024-01-30T04:06:31;58.70;;;28.20;;
18818;SDS011;9537;45.594;9.294;2024-01-30T04:07:33;57.23;;;34.80;;
18818;SDS011;9537;45.594;9.294;2024-01-30T04:08:33;53.03;;;25.83;;
18818;SDS011;9537;45.594;9.294;2024-01-30T04:09:37;47.47;;;25.40;;
18818;SDS011;9537;45.594;9.294;2024-01-30T04:10:38;49.53;;;27.43;;
18818;SDS011;9537;45.594;9.294;2024-01-30T04:11:40;55.63;;;26.83;;
18818;SDS011;9537;45.594;9.294;2024-01-30T04:12:41;51.93;;;26.07;;
18818;SDS011;9537;45.594;9.294;2024-01-30T04:13:43;50.03;;;24.43;;
18818;SDS011;9537;45.594;9.294;2024-01-30T04:14:44;51.13;;;25.30;;
18818;SDS011;9537;45.594;9.294;2024-01-30T04:15:46;43.47;;;24.63;;
18818;SDS011;9537;45.594;9.294;2024-01-30T04:16:47;48.37;;;25.03;;
18818;SDS011;9537;45.594;9.294;2024-01-30T04:17:48;55.63;;;26.03;;
18818;SDS011;9537;45.594;9.294;2024-01-30T04:18:49;45.60;;;23.90;;
18818;SDS011;9537;45.594;9.294;2024-01-30T04:19:52;47.47;;;25.00;;
18818;SDS011;9537;45.594;9.294;2024-01-30T04:20:53;53.40;;;24.57;;
18818;SDS011;9537;45.594;9.294;2024-01-30T04:21:55;47.70;;;23.53;;
18818;SDS011;9537;45.594;9.294;2024-01-30T04:22:56;49.53;;;26.10;;
18818;SDS011;9537;45.594;9.294;2024-01-30T04:23:57;47.50;;;24.70;;
18818;SDS011;9537;45.594;9.294;2024-01-30T04:24:59;52.93;;;24.87;;
18818;SDS011;9537;45.594;9.294;2024-01-30T04:26:00;55.13;;;24.90;;
18818;SDS011;9537;45.594;9.294;2024-01-30T04:27:03;44.80;;;23.53;;
18818;SDS011;9537;45.594;9.294;2024-01-30T04:28:04;53.27;;;25.93;;
18818;SDS011;9537;45.594;9.294;2024-01-30T04:29:05;50.70;;;27.23;;
18818;SDS011;9537;45.594;9.294;2024-01-30T04:30:07;48.20;;;24.90;;
18818;SDS011;9537;45.594;9.294;2024-01-30T04:31:09;48.57;;;26.00;;
18818;SDS011;9537;45.594;9.294;2024-01-30T04:32:09;43.33;;;24.20;;
18818;SDS011;9537;45.594;9.294;2024-01-30T04:33:13;48.47;;;25.27;;
18818;SDS011;9537;45.594;9.294;2024-01-30T04:34:14;46.93;;;25.13;;
18818;SDS011;9537;45.594;9.294;2024-01-30T04:35:16;49.57;;;24.13;;
18818;SDS011;9537;45.594;9.294;2024-01-30T04:36:17;44.73;;;23.33;;
18818;SDS011;9537;45.594;9.294;2024-01-30T04:37:19;47.37;;;24.00;;
18818;SDS011;9537;45.594;9.294;2024-01-30T04:38:19;54.27;;;24.63;;
18818;SDS011;9537;45.594;9.294;2024-01-30T04:39:21;46.37;;;23.60;;
18818;SDS011;9537;45.594;9.294;2024-01-30T04:40:23;60.27;;;35.30;;
18818;SDS011;9537;45.594;9.294;2024-01-30T04:41:25;56.37;;;31.63;;
18818;SDS011;9537;45.594;9.294;2024-01-30T04:42:28;49.77;;;29.23;;
18818;SDS011;9537;45.594;9.294;2024-01-30T04:43:30;51.20;;;31.87;;
18818;SDS011;9537;45.594;9.294;2024-01-30T04:44:31;45.10;;;23.80;;
18818;SDS011;9537;45.594;9.294;2024-01-30T04:45:33;47.73;;;23.27;;
18818;SDS011;9537;45.594;9.294;2024-01-30T04:46:33;43.43;;;22.40;;
18818;SDS011;9537;45.594;9.294;2024-01-30T04:47:35;44.47;;;23.07;;
18818;SDS011;9537;45.594;9.294;2024-01-30T04:48:36;48.10;;;24.53;;
18818;SDS011;9537;45.594;9.294;2024-01-30T04:49:38;51.77;;;24.70;;
18818;SDS011;9537;45.594;9.294;2024-01-30T04:50:41;48.77;;;24.03;;
18818;SDS011;9537;45.594;9.294;2024-01-30T04:51:42;57.23;;;25.73;;
18818;SDS011;9537;45.594;9.294;2024-01-30T04:52:44;54.23;;;25.53;;
18818;SDS011;9537;45.594;9.294;2024-01-30T04:53:45;45.43;;;23.93;;
18818;SDS011;9537;45.594;9.294;2024-01-30T04:54:46;53.40;;;26.07;;
18818;SDS011;9537;45.594;9.294;2024-01-30T04:55:48;48.93;;;25.30;;
18818;SDS011;9537;45.594;9.294;2024-01-30T04:56:49;49.23;;;24.20;;
18818;SDS011;9537;45.594;9.294;2024-01-30T04:57:54;43.60;;;23.40;;
18818;SDS011;9537;45.594;9.294;2024-01-30T04:58:54;49.03;;;26.20;;
18818;SDS011;9537;45.594;9.294;2024-01-30T04:59:56;49.63;;;24.67;;
18818;SDS011;9537;45.594;9.294;2024-01-30T05:00:57;49.83;;;25.67;;
18818;SDS011;9537;45.594;9.294;2024-01-30T05:01:58;49.57;;;24.70;;
18818;SDS011;9537;45.594;9.294;2024-01-30T05:02:59;46.30;;;23.80;;
18818;SDS011;9537;45.594;9.294;2024-01-30T05:04:00;50.40;;;24.37;;
18818;SDS011;9537;45.594;9.294;2024-01-30T05:05:03;43.33;;;24.13;;
18818;SDS011;9537;45.594;9.294;2024-01-30T05:06:05;55.77;;;30.73;;
18818;SDS011;9537;45.594;9.294;2024-01-30T05:07:07;56.60;;;34.73;;
18818;SDS011;9537;45.594;9.294;2024-01-30T05:08:08;49.60;;;24.07;;
18818;SDS011;9537;45.594;9.294;2024-01-30T05:09:10;53.13;;;29.00;;
18818;SDS011;9537;45.594;9.294;2024-01-30T05:10:11;57.77;;;33.30;;
18818;SDS011;9537;45.594;9.294;2024-01-30T05:11:13;61.00;;;35.47;;
18818;SDS011;9537;45.594;9.294;2024-01-30T05:12:15;55.57;;;25.13;;
18818;SDS011;9537;45.594;9.294;2024-01-30T05:13:16;49.40;;;24.77;;
18818;SDS011;9537;45.594;9.294;2024-01-30T05:14:18;49.07;;;24.37;;
18818;SDS011;9537;45.594;9.294;2024-01-30T05:15:18;40.97;;;23.23;;
18818;SDS011;9537;45.594;9.294;2024-01-30T05:16:20;49.77;;;24.27;;
18818;SDS011;9537;45.594;9.294;2024-01-30T05:17:21;45.50;;;25.03;;
18818;SDS011;9537;45.594;9.294;2024-01-30T05:18:23;48.13;;;24.80;;
18818;SDS011;9537;45.594;9.294;2024-01-30T05:19:23;45.00;;;23.73;;
18818;SDS011;9537;45.594;9.294;2024-01-30T05:20:25;43.80;;;22.97;;
18818;SDS011;9537;45.594;9.294;2024-01-30T05:21:28;49.20;;;23.90;;
18818;SDS011;9537;45.594;9.294;2024-01-30T05:22:28;46.57;;;24.00;;
18818;SDS011;9537;45.594;9.294;2024-01-30T05:23:30;47.13;;;24.47;;
18818;SDS011;9537;45.594;9.294;2024-01-30T05:24:31;51.67;;;23.90;;
18818;SDS011;9537;45.594;9.294;2024-01-30T05:25:33;54.23;;;25.60;;
18818;SDS011;9537;45.594;9.294;2024-01-30T05:26:35;44.67;;;22.67;;
18818;SDS011;9537;45.594;9.294;2024-01-30T05:27:37;49.07;;;23.60;;
18818;SDS011;9537;45.594;9.294;2024-01-30T05:28:37;39.57;;;23.03;;
18818;SDS011;9537;45.594;9.294;2024-01-30T05:29:38;48.90;;;23.03;;
18818;SDS011;9537;45.594;9.294;2024-01-30T05:30:40;43.33;;;22.03;;
18818;SDS011;9537;45.594;9.294;2024-01-30T05:31:43;52.83;;;24.50;;
18818;SDS011;9537;45.594;9.294;2024-01-30T05:32:53;48.33;;;23.37;;
18818;SDS011;9537;45.594;9.294;2024-01-30T05:33:54;51.73;;;24.80;;
18818;SDS011;9537;45.594;9.294;2024-01-30T05:34:55;52.43;;;25.43;;
18818;SDS011;9537;45.594;9.294;2024-01-30T05:35:56;46.93;;;24.83;;
18818;SDS011;9537;45.594;9.294;2024-01-30T05:36:58;57.37;;;25.93;;
18818;SDS011;9537;45.594;9.294;2024-01-30T05:37:59;46.83;;;23.20;;
18818;SDS011;9537;45.594;9.294;2024-01-30T05:39:00;49.10;;;24.93;;
18818;SDS011;9537;45.594;9.294;2024-01-30T05:40:01;48.20;;;23.40;;
18818;SDS011;9537;45.594;9.294;2024-01-30T05:41:03;45.37;;;23.13;;
18818;SDS011;9537;45.594;9.294;2024-01-30T05:42:06;49.60;;;25.43;;
18818;SDS011;9537;45.594;9.294;2024-01-30T05:43:09;57.00;;;26.77;;
18818;SDS011;9537;45.594;9.294;2024-01-30T05:44:11;48.43;;;24.43;;
18818;SDS011;9537;45.594;9.294;2024-01-30T05:45:12;49.57;;;24.00;;
18818;SDS011;9537;45.594;9.294;2024-01-30T05:46:13;47.37;;;23.93;;
18818;SDS011;9537;45.594;9.294;2024-01-30T05:47:15;49.87;;;26.77;;
18818;SDS011;9537;45.594;9.294;2024-01-30T05:48:15;55.73;;;32.23;;
18818;SDS011;9537;45.594;9.294;2024-01-30T05:49:17;48.27;;;25.60;;
18818;SDS011;9537;45.594;9.294;2024-01-30T05:50:18;53.53;;;31.37;;
18818;SDS011;9537;45.594;9.294;2024-01-30T05:51:19;54.50;;;31.80;;
18818;SDS011;9537;45.594;9.294;2024-01-30T05:52:21;49.63;;;30.57;;
18818;SDS011;9537;45.594;9.294;2024-01-30T05:53:22;59.10;;;33.27;;
18818;SDS011;9537;45.594;9.294;2024-01-30T05:54:24;50.40;;;31.17;;
18818;SDS011;9537;45.594;9.294;2024-01-30T05:55:25;50.13;;;30.77;;
18818;SDS011;9537;45.594;9.294;2024-01-30T05:56:27;49.00;;;29.37;;
18818;SDS011;9537;45.594;9.294;2024-01-30T05:57:30;48.87;;;29.87;;
18818;SDS011;9537;45.594;9.294;2024-01-30T05:58:31;53.00;;;30.43;;
18818;SDS011;9537;45.594;9.294;2024-01-30T05:59:32;49.47;;;29.83;;
18818;SDS011;9537;45.594;9.294;2024-01-30T06:00:34;52.70;;;30.47;;
18818;SDS011;9537;45.594;9.294;2024-01-30T06:01:34;42.77;;;23.97;;
18818;SDS011;9537;45.594;9.294;2024-01-30T06:02:36;49.70;;;28.70;;
18818;SDS011;9537;45.594;9.294;2024-01-30T06:03:37;45.97;;;28.47;;
18818;SDS011;9537;45.594;9.294;2024-01-30T06:04:39;46.17;;;28.70;;